Time;durP1;ratioP1;P1;durP2;ratioP2;P2;SDS_P1;SDS_P2;PMS_P1;PMS_P2;Temp;Humidity;BMP_temperature;BMP_pressure;BME280_temperature;BME280_humidity;BME280_pressure;Samples;Min_cycle;Max_cycle;Signal;HPM_P1;HPM_P2
2022/10/06 00:01:26;;;;;;;0.20;0.20;;;14.20;98.00;;;;;;4977912;28;20049;-76
2022/10/06 00:07:55;;;;;;;0.40;0.40;;;14.10;98.00;;;;;;4978458;28;20034;-76
2022/10/06 00:10:31;;;;;;;0.10;0.10;;;14.10;98.00;;;;;;4944717;28;20034;-76
2022/10/06 00:13:06;;;;;;;0.10;0.10;;;14.10;98.00;;;;;;4977741;28;20038;-76
2022/10/06 00:19:06;;;;;;;0.32;0.30;;;14.10;98.00;;;;;;4977812;28;20050;-76
2022/10/06 00:21:40;;;;;;;1.90;1.45;;;14.20;98.00;;;;;;4960494;28;20098;-76
2022/10/06 00:27:35;;;;;;;0.20;0.20;;;14.30;98.00;;;;;;4978293;28;20472;-76
2022/10/06 00:33:32;;;;;;;0.00;0.00;;;14.40;98.00;;;;;;4977660;28;20050;-76
2022/10/06 00:39:29;;;;;;;0.00;0.00;;;14.60;98.00;;;;;;4977465;28;20054;-76
2022/10/06 00:42:04;;;;;;;0.20;0.20;;;14.70;98.00;;;;;;4960449;28;20428;-76
2022/10/06 00:44:38;;;;;;;0.47;0.47;;;14.80;98.00;;;;;;4960324;28;20035;-76
2022/10/06 00:47:05;;;;;;;0.07;0.07;;;14.90;98.00;;;;;;4960283;28;20379;-76
2022/10/06 00:49:42;;;;;;;0.10;0.10;;;15.00;98.00;;;;;;4960558;28;20316;-76
2022/10/06 00:52:21;;;;;;;1.40;1.15;;;15.10;98.00;;;;;;4977303;28;20034;-76
2022/10/06 00:58:19;;;;;;;0.32;0.25;;;15.30;98.00;;;;;;4977419;28;20387;-76
2022/10/06 01:00:55;;;;;;;0.45;0.43;;;15.40;98.00;;;;;;4960191;28;20034;-76
2022/10/06 01:03:32;;;;;;;;;;;15.40;98.00;;;;;;4960689;28;20186;-76
2022/10/06 01:09:30;;;;;;;0.00;0.00;;;15.40;98.00;;;;;;4977525;28;20049;-76
2022/10/06 01:12:06;;;;;;;;;;;15.40;98.00;;;;;;4960578;28;20046;-76
2022/10/06 01:18:04;;;;;;;1.05;0.95;;;15.50;98.00;;;;;;4977302;28;20455;-76
2022/10/06 01:20:49;;;;;;;0.10;0.10;;;15.50;98.00;;;;;;4978769;28;20177;-76
2022/10/06 01:23:24;;;;;;;0.10;0.10;;;15.50;98.00;;;;;;4963987;28;20042;-76
2022/10/06 01:25:50;;;;;;;0.17;0.17;;;15.50;98.00;;;;;;4963608;28;20142;-76
2022/10/06 01:28:25;;;;;;;0.20;0.15;;;15.50;98.00;;;;;;4980819;28;20105;-76
2022/10/06 01:31:01;;;;;;;0.27;0.27;;;15.50;98.00;;;;;;4980630;28;20074;-76
2022/10/06 01:33:36;;;;;;;0.50;0.47;;;15.50;98.00;;;;;;4980761;28;20278;-76
2022/10/06 01:39:36;;;;;;;0.15;0.15;;;15.50;98.00;;;;;;4980464;28;20046;-76
2022/10/06 01:42:11;;;;;;;0.70;0.35;;;15.60;98.00;;;;;;4963306;28;20313;-76
2022/10/06 01:48:14;;;;;;;0.35;0.35;;;15.60;98.00;;;;;;4980817;28;20167;-76
2022/10/06 01:50:49;;;;;;;0.25;0.25;;;15.60;98.00;;;;;;4963130;28;20034;-76
2022/10/06 01:53:24;;;;;;;0.00;0.00;;;15.60;98.00;;;;;;4980373;28;20066;-76
2022/10/06 01:59:24;;;;;;;0.52;0.52;;;15.60;98.00;;;;;;4980129;28;20050;-76
2022/10/06 02:01:58;;;;;;;0.00;0.00;;;15.60;98.00;;;;;;4980089;28;20077;-76
2022/10/06 02:07:46;;;;;;;0.10;0.10;;;15.50;98.00;;;;;;4980441;28;20447;-76
2022/10/06 02:10:21;;;;;;;0.20;0.20;;;15.50;98.00;;;;;;4947035;28;20042;-76
2022/10/06 02:13:11;;;;;;;0.90;0.90;;;15.50;98.00;;;;;;4979922;28;20034;-76
2022/10/06 02:19:13;;;;;;;0.00;0.00;;;15.60;98.00;;;;;;4979740;28;20042;-76
2022/10/06 02:21:48;;;;;;;0.28;0.20;;;15.60;98.00;;;;;;4946628;28;20039;-77
2022/10/06 02:27:36;;;;;;;0.00;0.00;;;15.60;98.00;;;;;;4980126;28;20340;-76
2022/10/06 02:30:13;;;;;;;0.20;0.20;;;15.60;98.00;;;;;;4979651;28;20109;-76
2022/10/06 02:32:48;;;;;;;0.90;0.10;;;15.60;98.00;;;;;;4961362;28;20034;-76
2022/10/06 02:38:36;;;;;;;1.98;0.20;;;15.60;98.00;;;;;;4979424;28;20344;-76
2022/10/06 02:41:11;;;;;;;0.00;0.00;;;15.60;98.00;;;;;;4962249;28;20035;-76
2022/10/06 02:43:46;;;;;;;0.10;0.10;;;15.70;98.00;;;;;;4946109;28;20065;-76
2022/10/06 02:49:46;;;;;;;0.00;0.00;;;15.80;98.00;;;;;;4979493;28;20450;-76
2022/10/06 02:52:22;;;;;;;0.20;0.20;;;15.70;98.00;;;;;;4961885;28;20424;-76
2022/10/06 02:54:57;;;;;;;;;;;15.70;98.00;;;;;;4962778;28;20390;-76
2022/10/06 02:57:22;;;;;;;0.25;0.25;;;15.70;98.00;;;;;;4978935;28;19920;-76
2022/10/06 03:00:09;;;;;;;0.00;0.00;;;15.70;98.00;;;;;;4946021;28;20113;-76
2022/10/06 03:02:44;;;;;;;0.15;0.15;;;15.80;98.00;;;;;;4978738;28;20441;-76
2022/10/06 03:08:44;;;;;;;0.45;0.45;;;15.80;98.00;;;;;;4979017;28;20438;-76
2022/10/06 03:11:22;;;;;;;0.52;0.52;;;15.80;98.00;;;;;;4961673;28;20038;-76
2022/10/06 03:13:57;;;;;;;0.90;0.90;;;15.80;98.00;;;;;;4978860;28;20023;-76
2022/10/06 03:17:18;;;;;;;0.00;0.00;;;15.80;98.00;;;;;;4978911;28;20604;-75
2022/10/06 03:19:55;;;;;;;1.08;0.75;;;15.90;98.00;;;;;;4961477;28;20077;-75
2022/10/06 03:22:30;;;;;;;0.17;0.17;;;15.90;98.00;;;;;;4961871;28;20086;-75
2022/10/06 03:28:30;;;;;;;0.25;0.25;;;15.90;98.00;;;;;;4978979;28;20061;-76
2022/10/06 03:31:05;;;;;;;0.20;0.20;;;15.90;98.00;;;;;;4961246;28;20030;-76
2022/10/06 03:36:53;;;;;;;0.45;0.45;;;15.80;98.00;;;;;;4978515;28;20038;-76
2022/10/06 03:39:28;;;;;;;0.10;0.10;;;15.90;98.00;;;;;;4961202;28;20367;-76
2022/10/06 03:42:03;;;;;;;0.10;0.10;;;15.90;98.00;;;;;;4961088;28;20081;-76
2022/10/06 03:44:38;;;;;;;0.10;0.10;;;15.90;98.00;;;;;;4960823;28;20609;-76
2022/10/06 03:47:04;;;;;;;0.22;0.22;;;15.90;98.00;;;;;;4945159;28;20125;-76
2022/10/06 03:49:38;;;;;;;0.10;0.10;;;15.90;98.00;;;;;;4945161;28;20159;-76
2022/10/06 03:52:13;;;;;;;0.20;0.20;;;15.90;98.00;;;;;;4944971;28;20129;-76
2022/10/06 03:58:17;;;;;;;0.00;0.00;;;16.00;98.00;;;;;;4978136;28;20046;-76
2022/10/06 04:04:06;;;;;;;0.40;0.38;;;16.00;98.00;;;;;;4977992;28;20049;-75
2022/10/06 04:06:35;;;;;;;1.13;1.02;;;16.10;98.00;;;;;;4960801;28;20431;-75
2022/10/06 04:09:12;;;;;;;0.38;0.38;;;16.10;98.00;;;;;;4977849;28;20412;-75
2022/10/06 04:11:47;;;;;;;0.05;0.05;;;16.00;98.00;;;;;;4977803;28;20057;-75
2022/10/06 04:17:35;;;;;;;0.03;0.03;;;16.00;98.00;;;;;;4977965;28;20046;-75
2022/10/06 04:20:13;;;;;;;0.45;0.45;;;16.00;98.00;;;;;;4960699;28;20039;-75
2022/10/06 04:22:48;;;;;;;0.40;0.40;;;15.90;98.00;;;;;;4977498;28;20427;-76
2022/10/06 04:28:48;;;;;;;0.10;0.10;;;15.80;98.00;;;;;;4978030;28;20034;-76
2022/10/06 04:31:32;;;;;;;0.95;0.40;;;15.70;98.00;;;;;;4977493;28;20065;-76
2022/10/06 04:34:10;;;;;;;0.32;0.32;;;15.70;98.00;;;;;;4960374;28;20039;-76
2022/10/06 04:36:39;;;;;;;0.28;0.28;;;15.60;98.00;;;;;;4960416;28;20042;-76
2022/10/06 04:39:14;;;;;;;0.10;0.10;;;15.60;98.00;;;;;;4960838;28;20043;-76
2022/10/06 04:41:49;;;;;;;0.87;0.87;;;15.60;98.00;;;;;;4960290;28;20134;-75
2022/10/06 04:47:48;;;;;;;0.22;0.22;;;15.60;98.00;;;;;;4977872;28;20430;-75
2022/10/06 04:50:23;;;;;;;0.20;0.20;;;15.50;98.00;;;;;;4977522;28;20039;-75
2022/10/06 04:52:58;;;;;;;0.22;0.22;;;15.50;98.00;;;;;;4944302;28;20026;-75
2022/10/06 04:58:56;;;;;;;0.60;0.60;;;15.40;98.00;;;;;;4981243;28;20042;-76
2022/10/06 05:01:34;;;;;;;0.25;0.25;;;15.50;98.00;;;;;;4964133;28;20042;-76
2022/10/06 05:04:10;;;;;;;0.10;0.10;;;15.50;98.00;;;;;;4963941;28;20327;-76
2022/10/06 05:06:38;;;;;;;0.00;0.00;;;15.50;98.00;;;;;;4964129;28;20433;-76
2022/10/06 05:09:16;;;;;;;0.05;0.05;;;15.50;98.00;;;;;;4964118;28;20034;-76
2022/10/06 05:11:51;;;;;;;0.17;0.17;;;15.50;97.00;;;;;;4963935;28;20046;-76
2022/10/06 05:17:48;;;;;;;0.10;0.10;;;15.60;96.30;;;;;;4981533;28;20093;-76
2022/10/06 05:20:23;;;;;;;0.65;0.65;;;15.70;96.20;;;;;;4963669;28;20335;-75
2022/10/06 05:22:57;;;;;;;0.30;0.30;;;15.70;95.90;;;;;;4963898;28;20439;-75
2022/10/06 05:25:32;;;;;;;0.10;0.10;;;15.70;95.40;;;;;;4980765;28;20038;-75
2022/10/06 05:28:07;;;;;;;1.48;1.13;;;15.70;95.70;;;;;;4963695;28;20039;-75
2022/10/06 05:30:43;;;;;;;0.30;0.30;;;15.60;95.30;;;;;;4963486;28;20027;-75
2022/10/06 05:33:18;;;;;;;0.00;0.00;;;15.60;95.80;;;;;;4947655;28;20118;-75
2022/10/06 05:39:14;;;;;;;0.32;0.32;;;15.60;94.70;;;;;;4980514;28;20085;-75
2022/10/06 05:41:50;;;;;;;0.00;0.00;;;15.60;95.70;;;;;;4947501;28;20050;-75
2022/10/06 05:47:38;;;;;;;0.30;0.22;;;15.40;95.70;;;;;;4980609;28;20034;-76
2022/10/06 05:50:22;;;;;;;0.00;0.00;;;15.40;95.80;;;;;;4963532;28;20055;-75
2022/10/06 05:52:57;;;;;;;0.10;0.10;;;15.40;95.50;;;;;;4947341;28;20159;-75
2022/10/06 05:59:01;;;;;;;0.00;0.00;;;15.60;95.50;;;;;;4980330;28;20098;-75
2022/10/06 06:01:41;;;;;;;0.00;0.00;;;15.50;95.10;;;;;;4963068;28;20081;-75
2022/10/06 06:07:28;;;;;;;0.03;0.03;;;15.40;95.60;;;;;;4980412;28;20111;-75
2022/10/06 06:10:37;;;;;;;0.50;0.30;;;15.40;95.70;;;;;;4962963;28;20133;-75
2022/10/06 06:13:11;;;;;;;0.00;0.00;;;15.40;95.50;;;;;;4979774;28;20042;-75
2022/10/06 06:18:32;;;;;;;0.15;0.10;;;15.50;94.90;;;;;;4965636;28;20173;-75
2022/10/06 06:21:08;;;;;;;0.10;0.10;;;15.50;95.10;;;;;;4979977;28;20027;-75
2022/10/06 06:23:45;;;;;;;0.10;0.10;;;15.50;95.10;;;;;;4979775;28;20336;-75
2022/10/06 06:29:42;;;;;;;0.43;0.30;;;15.70;95.00;;;;;;4979899;28;20093;-75
2022/10/06 06:32:17;;;;;;;0.20;0.20;;;15.80;94.30;;;;;;4962690;28;20423;-75
2022/10/06 06:38:14;;;;;;;0.00;0.00;;;15.90;94.20;;;;;;4979614;28;20049;-75
2022/10/06 06:40:49;;;;;;;0.17;0.17;;;15.90;94.60;;;;;;4962469;28;20058;-75
2022/10/06 06:43:24;;;;;;;0.00;0.00;;;16.00;94.50;;;;;;4962597;28;20031;-75
2022/10/06 06:49:21;;;;;;;0.17;0.17;;;16.20;92.90;;;;;;4979287;28;20293;-75
2022/10/06 06:51:56;;;;;;;0.00;0.00;;;16.20;94.40;;;;;;4962169;28;20121;-75
2022/10/06 06:57:45;;;;;;;0.00;0.00;;;16.40;93.70;;;;;;4979276;28;20038;-75
2022/10/06 07:00:22;;;;;;;0.10;0.10;;;16.50;92.60;;;;;;4961986;28;20123;-75
2022/10/06 07:03:19;;;;;;;0.05;0.05;;;16.60;93.00;;;;;;4963688;28;20432;-75
2022/10/06 07:05:45;;;;;;;0.00;0.00;;;16.60;93.10;;;;;;4961949;28;20031;-75
2022/10/06 07:08:20;;;;;;;0.00;0.00;;;16.70;92.00;;;;;;4978948;28;20035;-75
2022/10/06 07:10:56;;;;;;;0.08;0.08;;;16.70;93.10;;;;;;4961803;28;20031;-75
2022/10/06 07:13:31;;;;;;;0.10;0.10;;;16.80;92.70;;;;;;4962133;28;20432;-75
2022/10/06 07:29:00;;;;;;;0.10;0.10;;;16.90;96.70;;;;;;4978862;28;20046;-76
2022/10/06 07:31:36;;;;;;;0.00;0.00;;;16.90;94.20;;;;;;4961807;28;20415;-76
2022/10/06 07:34:12;;;;;;;0.10;0.10;;;16.90;93.60;;;;;;4978446;28;20424;-76
2022/10/06 07:36:38;;;;;;;1.65;0.60;;;16.90;94.30;;;;;;4961421;28;20331;-76
2022/10/06 07:39:16;;;;;;;0.00;0.00;;;17.00;97.30;;;;;;4961320;28;20048;-76
2022/10/06 07:41:51;;;;;;;0.30;0.30;;;17.10;96.70;;;;;;4961242;28;20055;-76
2022/10/06 07:44:29;;;;;;;0.77;0.77;;;17.10;96.50;;;;;;4961226;28;20419;-76
2022/10/06 07:46:55;;;;;;;0.38;0.38;;;17.00;95.40;;;;;;4961244;28;20039;-76
2022/10/06 07:50:03;;;;;;;6.13;2.38;;;17.00;98.00;;;;;;4961229;28;20430;-76
2022/10/06 07:52:38;;;;;;;0.10;0.10;;;17.00;98.00;;;;;;4960822;28;20336;-76
2022/10/06 07:55:16;;;;;;;0.43;0.43;;;17.00;98.00;;;;;;4961054;28;20023;-76
2022/10/06 07:57:44;;;;;;;0.32;0.32;;;17.00;98.00;;;;;;4978025;28;20117;-76
2022/10/06 08:00:23;;;;;;;0.40;0.40;;;17.10;98.00;;;;;;4961045;28;20101;-76
2022/10/06 08:02:58;;;;;;;0.52;0.52;;;17.10;98.00;;;;;;4977922;28;20030;-76
2022/10/06 08:09:01;;;;;;;0.52;0.52;;;17.20;98.00;;;;;;4977786;28;20045;-76
2022/10/06 08:11:36;;;;;;;0.52;0.52;;;17.30;98.00;;;;;;4977851;28;20034;-76
2022/10/06 08:17:42;;;;;;;0.77;0.77;;;18.40;97.00;;;;;;4978173;28;20097;-76
2022/10/06 08:20:17;;;;;;;0.55;0.55;;;19.40;94.20;;;;;;4977755;28;20049;-76
2022/10/06 08:22:53;;;;;;;0.50;0.50;;;20.10;91.50;;;;;;4960749;28;20121;-76
2022/10/06 08:29:01;;;;;;;0.40;0.30;;;21.40;86.60;;;;;;4977920;28;20053;-74
2022/10/06 08:31:36;;;;;;;0.57;0.57;;;22.30;84.50;;;;;;4977673;28;20443;-74
2022/10/06 08:34:12;;;;;;;0.00;0.00;;;22.60;83.30;;;;;;4977348;28;20445;-74
2022/10/06 08:36:37;;;;;;;0.57;0.57;;;23.10;82.80;;;;;;4960509;28;20026;-74
2022/10/06 08:39:16;;;;;;;0.30;0.30;;;23.20;82.30;;;;;;4960532;28;20327;-74
2022/10/06 08:41:53;;;;;;;4.03;1.50;;;23.20;80.10;;;;;;4960351;28;20384;-75
2022/10/06 08:44:29;;;;;;;0.40;0.40;;;23.10;81.40;;;;;;4960499;28;20062;-75
2022/10/06 08:47:25;;;;;;;4.07;1.60;;;23.40;81.20;;;;;;4977577;28;20102;-75
2022/10/06 08:50:02;;;;;;;0.20;0.20;;;23.40;78.90;;;;;;4977437;28;20039;-75
2022/10/06 08:53:25;;;;;;;0.30;0.30;;;23.60;79.60;;;;;;4977472;28;20019;-75
2022/10/06 08:59:32;;;;;;;0.85;0.75;;;24.40;79.10;;;;;;4977478;28;20448;-74
2022/10/06 09:02:40;;;;;;;0.45;0.45;;;24.60;79.10;;;;;;4977436;28;20039;-74
2022/10/06 09:08:37;;;;;;;0.45;0.45;;;24.70;76.40;;;;;;4977663;28;20050;-74
2022/10/06 09:11:58;;;;;;;0.40;0.40;;;24.80;77.20;;;;;;4977330;28;20027;-74
2022/10/06 09:17:55;;;;;;;0.65;0.43;;;25.00;76.30;;;;;;4977569;28;20086;-74
2022/10/06 09:20:50;;;;;;;0.52;0.45;;;25.40;73.50;;;;;;4977254;28;20043;-74
2022/10/06 09:23:49;;;;;;;0.60;0.60;;;25.20;73.60;;;;;;4977131;28;20441;-74
2022/10/06 09:29:47;;;;;;;0.45;0.45;;;23.80;77.40;;;;;;4977411;28;20049;-75
2022/10/06 09:32:25;;;;;;;0.73;0.50;;;23.90;77.60;;;;;;4959831;28;20122;-75
2022/10/06 09:35:21;;;;;;;0.38;0.38;;;24.30;78.90;;;;;;4959931;28;20039;-74
2022/10/06 09:37:55;;;;;;;0.30;0.30;;;24.80;77.20;;;;;;4976937;28;20059;-74
2022/10/06 09:41:02;;;;;;;1.20;0.60;;;25.10;76.80;;;;;;4960147;28;20042;-75
2022/10/06 09:43:47;;;;;;;0.25;0.25;;;25.30;74.20;;;;;;4883629;29;20045;-74
2022/10/06 09:46:51;;;;;;;0.30;0.30;;;25.40;73.30;;;;;;4868036;29;20049;-74
2022/10/06 09:49:30;;;;;;;0.73;0.50;;;25.30;73.40;;;;;;4867931;29;20041;-74
2022/10/06 09:52:14;;;;;;;0.15;0.15;;;25.50;73.90;;;;;;4852764;29;20416;-74
2022/10/06 09:55:59;;;;;;;0.80;0.80;;;25.80;72.40;;;;;;4868985;29;20088;-74
2022/10/06 09:58:33;;;;;;;1.07;0.50;;;25.80;72.30;;;;;;4819498;29;20046;-74
2022/10/06 10:01:13;;;;;;;0.50;0.50;;;26.10;72.60;;;;;;4813121;29;20042;-74
2022/10/06 10:04:04;;;;;;;1.33;0.80;;;26.20;72.80;;;;;;4827728;29;20049;-74
2022/10/06 10:06:40;;;;;;;0.55;0.43;;;26.30;71.90;;;;;;4830946;29;20047;-74
2022/10/06 10:09:26;;;;;;;0.45;0.38;;;25.90;74.40;;;;;;4883199;29;20037;-74
2022/10/06 10:12:23;;;;;;;0.75;0.45;;;25.70;73.50;;;;;;4883074;29;20168;-74
2022/10/06 10:18:45;;;;;;;0.20;0.20;;;25.60;73.50;;;;;;4859160;29;20047;-75
2022/10/06 10:21:51;;;;;;;0.35;0.20;;;25.70;76.00;;;;;;4920612;29;20492;-75
2022/10/06 10:24:55;;;;;;;0.53;0.47;;;25.60;74.10;;;;;;4912295;29;20044;-75
2022/10/06 10:27:43;;;;;;;0.28;0.28;;;25.50;73.70;;;;;;4912009;29;20044;-75
2022/10/06 10:30:18;;;;;;;0.20;0.20;;;25.50;75.10;;;;;;4919527;29;20154;-74
2022/10/06 10:33:45;;;;;;;0.28;0.20;;;25.60;74.30;;;;;;4920254;29;20092;-74
2022/10/06 10:36:15;;;;;;;0.60;0.60;;;25.70;73.70;;;;;;4856214;29;20072;-74
2022/10/06 10:38:56;;;;;;;1.17;0.88;;;25.60;74.20;;;;;;4864050;29;20116;-74
2022/10/06 10:42:36;;;;;;;0.10;0.10;;;25.60;74.80;;;;;;4864065;29;20102;-75
2022/10/06 11:09:18;;;;;;;0.65;0.60;;;25.40;75.10;;;;;;4863845;29;20057;-74
2022/10/06 11:12:32;;;;;;;0.40;0.40;;;25.60;75.30;;;;;;4930101;28;20181;-74
2022/10/06 11:19:36;;;;;;;0.38;0.38;;;25.60;75.50;;;;;;4978831;28;20338;-74
2022/10/06 11:22:13;;;;;;;0.32;0.32;;;25.50;76.70;;;;;;4826519;29;20348;-74
2022/10/06 11:25:25;;;;;;;2.45;1.17;;;25.50;77.80;;;;;;4811388;29;20373;-74
2022/10/06 11:28:08;;;;;;;0.93;0.77;;;25.80;75.70;;;;;;4826514;29;20042;-74
2022/10/06 11:31:13;;;;;;;0.10;0.10;;;25.50;74.80;;;;;;4826516;29;20050;-74
2022/10/06 11:34:02;;;;;;;0.40;0.35;;;25.20;76.40;;;;;;4796015;29;20050;-74
2022/10/06 11:36:51;;;;;;;0.20;0.20;;;25.40;77.30;;;;;;4811125;29;20038;-74
2022/10/06 11:39:44;;;;;;;2.50;0.80;;;25.50;79.20;;;;;;4826184;29;20047;-74
2022/10/06 11:42:47;;;;;;;0.40;0.40;;;25.20;74.70;;;;;;4826384;29;20057;-74
2022/10/06 11:48:43;;;;;;;2.08;1.35;;;25.00;76.50;;;;;;4860130;29;20111;-74
2022/10/06 11:51:46;;;;;;;0.30;0.20;;;24.50;77.00;;;;;;4903077;29;20095;-74
2022/10/06 11:54:48;;;;;;;0.35;0.35;;;24.40;78.70;;;;;;4897088;29;20044;-74
2022/10/06 11:58:12;;;;;;;0.45;0.45;;;24.30;79.30;;;;;;4922415;28;20032;-74
2022/10/06 12:00:48;;;;;;;0.90;0.77;;;24.20;80.10;;;;;;4881409;29;20053;-74
2022/10/06 12:07:23;;;;;;;0.63;0.60;;;23.90;81.40;;;;;;4881619;29;20338;-74
2022/10/06 12:10:35;;;;;;;1.02;0.93;;;23.70;81.90;;;;;;4881098;29;20422;-74
2022/10/06 12:13:36;;;;;;;0.15;0.15;;;23.70;78.70;;;;;;4881050;29;20047;-74
2022/10/06 12:16:48;;;;;;;0.55;0.55;;;23.60;84.70;;;;;;4865493;29;20033;-74
2022/10/06 12:20:10;;;;;;;0.82;0.70;;;23.60;83.30;;;;;;4899538;29;20364;-74
2022/10/06 12:23:33;;;;;;;0.73;0.73;;;23.60;80.00;;;;;;4898304;29;20326;-74
2022/10/06 12:26:16;;;;;;;0.30;0.30;;;23.60;83.00;;;;;;4898511;29;20080;-74
2022/10/06 12:29:19;;;;;;;5.57;1.15;;;23.60;82.60;;;;;;4946424;28;20427;-74
2022/10/06 12:32:19;;;;;;;0.50;0.50;;;23.50;81.80;;;;;;4977661;28;20416;-74
2022/10/06 12:35:13;;;;;;;0.52;0.52;;;23.30;82.20;;;;;;4977514;28;20027;-76
2022/10/06 12:37:39;;;;;;;0.40;0.40;;;23.20;84.70;;;;;;4977438;28;20039;-76
2022/10/06 12:40:50;;;;;;;0.43;0.40;;;23.10;81.80;;;;;;4977593;28;20037;-76
2022/10/06 12:43:31;;;;;;;0.57;0.57;;;22.90;84.30;;;;;;4977633;28;20033;-76
2022/10/06 12:49:58;;;;;;;1.67;0.65;;;22.80;86.60;;;;;;4977733;28;20105;-76
2022/10/06 12:52:50;;;;;;;0.32;0.32;;;22.80;86.60;;;;;;4944321;28;20031;-76
2022/10/06 12:55:58;;;;;;;0.75;0.70;;;22.60;83.80;;;;;;4960201;28;20039;-76
2022/10/06 12:58:41;;;;;;;0.47;0.47;;;22.50;87.20;;;;;;4977191;28;20038;-76
2022/10/06 13:01:26;;;;;;;0.60;0.60;;;22.40;84.50;;;;;;4960607;28;20424;-74
2022/10/06 13:04:03;;;;;;;0.32;0.32;;;22.30;84.30;;;;;;4960619;28;20054;-75
2022/10/06 13:06:30;;;;;;;0.65;0.65;;;22.20;87.80;;;;;;4944260;28;20034;-76
2022/10/06 13:09:20;;;;;;;0.15;0.15;;;22.10;87.30;;;;;;4977254;28;20490;-76
2022/10/06 13:11:55;;;;;;;2.78;1.08;;;22.10;85.80;;;;;;4977317;28;20034;-76
2022/10/06 13:14:30;;;;;;;0.93;0.88;;;22.10;87.70;;;;;;4977207;28;20110;-76
2022/10/06 13:16:56;;;;;;;0.10;0.10;;;22.10;87.30;;;;;;4980081;28;20061;-76
2022/10/06 13:19:30;;;;;;;0.28;0.22;;;22.10;88.90;;;;;;4980920;28;20443;-76
2022/10/06 13:22:05;;;;;;;0.50;0.43;;;22.10;89.90;;;;;;4963868;28;20074;-74
2022/10/06 13:24:40;;;;;;;0.43;0.43;;;22.10;88.00;;;;;;4980829;28;20458;-74
2022/10/06 13:27:05;;;;;;;0.15;0.13;;;22.10;86.30;;;;;;4980900;28;20027;-74
2022/10/06 13:29:49;;;;;;;0.88;0.88;;;22.00;85.60;;;;;;4963648;28;20038;-74
2022/10/06 13:32:25;;;;;;;0.25;0.22;;;21.90;86.60;;;;;;4963707;28;20050;-76
2022/10/06 13:34:59;;;;;;;0.57;0.55;;;22.00;89.80;;;;;;4980636;28;20439;-76
2022/10/06 13:37:26;;;;;;;0.10;0.10;;;22.00;89.40;;;;;;4963539;28;20058;-76
2022/10/06 13:40:15;;;;;;;1.42;1.00;;;22.00;85.50;;;;;;4963619;28;20310;-76
2022/10/06 13:42:50;;;;;;;0.10;0.10;;;21.90;87.50;;;;;;4963517;28;20150;-76
2022/10/06 13:48:53;;;;;;;0.25;0.25;;;21.70;87.10;;;;;;4980855;28;20331;-76
2022/10/06 13:51:31;;;;;;;0.73;0.50;;;21.60;89.00;;;;;;4980520;28;20031;-76
2022/10/06 13:54:36;;;;;;;0.57;0.52;;;21.50;88.70;;;;;;4963376;28;20090;-76
2022/10/06 13:57:02;;;;;;;0.03;0.03;;;21.40;88.10;;;;;;4980148;28;20030;-76
2022/10/06 13:59:40;;;;;;;0.30;0.25;;;21.30;90.30;;;;;;4962990;28;20054;-76
2022/10/06 14:05:44;;;;;;;0.30;0.30;;;21.20;90.00;;;;;;4980344;28;20116;-76
2022/10/06 14:08:23;;;;;;;0.70;0.70;;;21.00;88.80;;;;;;4980100;28;20035;-76
2022/10/06 14:11:09;;;;;;;1.27;1.17;;;21.00;89.80;;;;;;4963121;28;20352;-76
2022/10/06 14:17:03;;;;;;;0.85;0.85;;;21.00;90.40;;;;;;4940100;29;20054;-76
2022/10/06 14:19:47;;;;;;;1.25;1.15;;;21.00;88.50;;;;;;4939608;29;20080;-76
2022/10/06 14:22:37;;;;;;;0.20;0.20;;;21.00;90.40;;;;;;4939565;29;20043;-76
2022/10/06 14:25:14;;;;;;;0.20;0.20;;;21.00;88.70;;;;;;4939484;29;20368;-76
2022/10/06 14:27:39;;;;;;;0.73;0.57;;;21.00;89.80;;;;;;4939416;29;20039;-76
2022/10/06 14:30:15;;;;;;;0.25;0.25;;;21.10;89.70;;;;;;4939310;29;20123;-76
2022/10/06 14:32:50;;;;;;;0.60;0.60;;;21.10;88.10;;;;;;4923283;29;20046;-76
2022/10/06 14:35:24;;;;;;;0.20;0.20;;;21.10;88.80;;;;;;4923306;29;20035;-76
2022/10/06 14:38:00;;;;;;;0.65;0.65;;;21.00;90.00;;;;;;4939334;29;20291;-76
2022/10/06 14:40:38;;;;;;;0.75;0.75;;;20.90;90.40;;;;;;4939194;29;20036;-76
2022/10/06 14:43:13;;;;;;;11.02;4.70;;;20.90;90.10;;;;;;4923235;29;20082;-76
2022/10/06 14:45:43;;;;;;;0.63;0.60;;;20.80;90.80;;;;;;4939069;29;20114;-76
2022/10/06 14:48:18;;;;;;;0.70;0.70;;;20.70;91.00;;;;;;4966691;28;20270;-76
2022/10/06 14:50:52;;;;;;;0.43;0.43;;;20.60;90.50;;;;;;4979359;28;20034;-76
2022/10/06 14:53:28;;;;;;;0.53;0.53;;;20.40;91.90;;;;;;4979369;28;20090;-76
2022/10/06 14:59:25;;;;;;;0.30;0.30;;;20.20;91.20;;;;;;4979146;28;20054;-76
2022/10/06 15:02:00;;;;;;;0.15;0.15;;;20.20;93.00;;;;;;4979277;28;20447;-76
2022/10/06 15:04:35;;;;;;;0.40;0.40;;;20.20;92.20;;;;;;4961919;28;20114;-76
2022/10/06 15:09:56;;;;;;;0.45;0.45;;;20.10;92.70;;;;;;4964667;28;20089;-76
2022/10/06 15:12:30;;;;;;;0.47;0.38;;;20.10;93.20;;;;;;4961875;28;20380;-76
2022/10/06 15:15:06;;;;;;;0.30;0.30;;;20.10;92.50;;;;;;4961613;28;20074;-76
2022/10/06 15:17:31;;;;;;;;;;;20.10;92.90;;;;;;4962300;28;20059;-76
2022/10/06 15:20:06;;;;;;;;;;;19.90;93.10;;;;;;4961954;28;20004;-76
2022/10/06 15:22:41;;;;;;;0.88;0.88;;;19.90;93.80;;;;;;4978707;28;19936;-76
2022/10/06 15:30:55;;;;;;;0.17;0.17;;;19.80;94.20;;;;;;4964328;28;20050;-77
2022/10/06 15:33:30;;;;;;;0.40;0.30;;;19.80;95.30;;;;;;4978441;28;20046;-77
2022/10/06 15:42:40;;;;;;;0.25;0.22;;;19.80;95.50;;;;;;4978812;28;20042;-76
2022/10/06 15:48:39;;;;;;;0.00;0.00;;;19.60;94.10;;;;;;4978698;28;20543;-76
2022/10/06 15:51:14;;;;;;;0.28;0.28;;;19.60;95.40;;;;;;4961095;28;20035;-76
2022/10/06 15:53:49;;;;;;;0.77;0.77;;;19.60;96.40;;;;;;4978069;28;20030;-76
2022/10/06 15:56:16;;;;;;;0.08;0.08;;;19.50;96.60;;;;;;4960988;28;20121;-76
2022/10/06 15:58:51;;;;;;;0.10;0.10;;;19.40;96.40;;;;;;4945103;28;20039;-76
2022/10/06 16:01:48;;;;;;;0.88;0.55;;;19.30;97.30;;;;;;4978088;28;20161;-76
2022/10/06 16:07:11;;;;;;;0.10;0.10;;;18.90;97.60;;;;;;4978043;28;20038;-76
2022/10/06 16:09:59;;;;;;;0.22;0.22;;;18.80;97.70;;;;;;4960839;28;20023;-76
2022/10/06 16:12:34;;;;;;;0.03;0.03;;;18.70;98.00;;;;;;4977888;28;20400;-76
2022/10/06 16:18:21;;;;;;;0.10;0.10;;;18.40;98.00;;;;;;4977796;28;20126;-76
2022/10/06 16:27:31;;;;;;;0.80;0.30;;;17.80;98.00;;;;;;4978086;28;20049;-76
2022/10/06 16:30:15;;;;;;;3.40;0.40;;;17.60;98.00;;;;;;4977830;28;20031;-76
2022/10/06 16:32:50;;;;;;;0.00;0.00;;;17.50;98.00;;;;;;4944620;28;20035;-76
2022/10/06 16:35:25;;;;;;;0.10;0.10;;;17.50;98.00;;;;;;4960320;28;20035;-76
2022/10/06 16:38:00;;;;;;;1.58;0.95;;;17.30;98.00;;;;;;4960470;28;20041;-76
2022/10/06 16:40:34;;;;;;;0.00;0.00;;;17.20;98.00;;;;;;4977598;28;20050;-76
2022/10/06 16:43:11;;;;;;;0.17;0.17;;;17.10;97.40;;;;;;4977673;28;20293;-76
2022/10/06 16:45:37;;;;;;;0.00;0.00;;;17.00;97.00;;;;;;4960271;28;20130;-76
2022/10/06 16:48:18;;;;;;;0.00;0.00;;;16.90;96.40;;;;;;4944367;28;20125;-76
2022/10/06 16:51:27;;;;;;;0.00;0.00;;;16.90;95.70;;;;;;4978186;28;20065;-76
2022/10/06 16:54:05;;;;;;;0.40;0.40;;;16.90;95.20;;;;;;4884370;29;20052;-76
2022/10/06 16:56:36;;;;;;;0.10;0.10;;;16.90;93.20;;;;;;4884503;29;20044;-76
2022/10/06 16:59:16;;;;;;;0.00;0.00;;;16.90;93.00;;;;;;4981289;28;20030;-76
2022/10/06 17:02:56;;;;;;;0.03;0.00;;;16.90;92.20;;;;;;4981349;28;20043;-76
2022/10/06 17:10:16;;;;;;;0.00;0.00;;;17.00;90.50;;;;;;4981527;28;20450;-76
2022/10/06 17:13:56;;;;;;;0.00;0.00;;;16.90;89.50;;;;;;4963897;28;20037;-76
2022/10/06 17:16:42;;;;;;;0.00;0.00;;;16.90;89.70;;;;;;4980920;28;20077;-76
2022/10/06 17:19:18;;;;;;;0.00;0.00;;;16.70;89.40;;;;;;4980885;28;20039;-76
2022/10/06 17:21:53;;;;;;;0.65;0.65;;;16.70;89.20;;;;;;4980893;28;20266;-76
2022/10/06 17:24:30;;;;;;;0.00;0.00;;;16.80;89.50;;;;;;4980905;28;20030;-76
2022/10/06 17:26:56;;;;;;;0.00;0.00;;;16.80;90.20;;;;;;4980829;28;20038;-76
2022/10/06 17:29:37;;;;;;;0.08;0.08;;;16.80;89.70;;;;;;4980817;28;20073;-76
2022/10/06 17:32:14;;;;;;;6.63;0.73;;;16.70;89.60;;;;;;4963725;28;20031;-76
2022/10/06 17:34:50;;;;;;;0.00;0.00;;;16.70;89.70;;;;;;4980715;28;20039;-76
2022/10/06 17:37:16;;;;;;;0.00;0.00;;;16.80;87.00;;;;;;4963537;28;20047;-76
2022/10/06 17:39:57;;;;;;;0.15;0.15;;;17.00;87.40;;;;;;4947426;28;20454;-76
2022/10/06 17:42:35;;;;;;;0.00;0.00;;;17.10;88.80;;;;;;4980582;28;20038;-76
2022/10/06 17:48:25;;;;;;;0.28;0.28;;;17.10;87.10;;;;;;4980790;28;20066;-76
2022/10/06 17:51:15;;;;;;;0.00;0.00;;;17.10;87.50;;;;;;4980386;28;20027;-76
2022/10/06 17:53:55;;;;;;;0.10;0.10;;;17.00;87.10;;;;;;4980443;28;20371;-76
2022/10/06 17:57:10;;;;;;;0.10;0.10;;;16.90;87.20;;;;;;4980431;28;20054;-76
2022/10/06 17:59:45;;;;;;;0.20;0.20;;;16.90;87.70;;;;;;4963055;28;20435;-76
2022/10/06 18:02:19;;;;;;;0.20;0.20;;;16.70;86.90;;;;;;4979809;28;20047;-76
2022/10/06 18:04:54;;;;;;;0.05;0.05;;;16.60;86.60;;;;;;4963051;28;20106;-76
2022/10/06 18:07:59;;;;;;;0.15;0.15;;;16.60;86.90;;;;;;4963071;28;20034;-76